Elwood, Utah
Current Conditions -  °F | °C
As of 7:15 PM on Tuesday 21 Oct 2014 (Local Time) from KBMC Reporting Station
Clear Clear  
Wind Chill: 54°   Ceiling: Unl
Heat Index: 54°   Visibility: 10mi
Dew Point: 30°   Wind: 14mph
Humidity: 41%   Direction: 330°NNW
Pressure: 30.05"   Gusts: NA
Location:  41.6836°N, 112.26°W
Report Text: KBMC 220115Z AUTO 33012KT 10SM CLR 12/M01 A3005 RMK AO1 T01211010
Loading
Personal Weather Stations






























Interactive Weather Map
Tropical Storm Tracking
New forecast layout! Learn more

10-Day Weather Forecast

Advertisements
Track Severe Weather on mobile